createdAt,value
2022-09-09T00:00:07.030Z,12.40
2022-09-09T00:01:07.025Z,12.41
2022-09-09T00:02:07.071Z,12.37
2022-09-09T00:03:07.227Z,12.31
2022-09-09T00:04:06.985Z,12.37
2022-09-09T00:05:07.001Z,12.34
2022-09-09T00:06:06.963Z,12.31
2022-09-09T00:07:06.956Z,12.34
2022-09-09T00:08:06.942Z,12.36
2022-09-09T00:09:06.942Z,12.31
2022-09-09T00:10:06.921Z,12.29
2022-09-09T00:11:06.908Z,12.29
2022-09-09T00:12:06.896Z,12.31
2022-09-09T00:13:06.886Z,12.29
2022-09-09T00:14:06.875Z,12.30
2022-09-09T00:15:06.863Z,12.25
2022-09-09T00:16:06.901Z,12.26
2022-09-09T00:17:06.843Z,12.22
2022-09-09T00:18:06.830Z,12.16
2022-09-09T00:19:06.819Z,12.16
2022-09-09T00:20:06.809Z,12.13
2022-09-09T00:21:06.822Z,12.15
2022-09-09T00:22:06.786Z,12.18
2022-09-09T00:23:06.777Z,12.23
2022-09-09T00:24:06.763Z,12.18
2022-09-09T00:25:06.755Z,12.16
2022-09-09T00:26:06.741Z,12.18
2022-09-09T00:27:06.730Z,12.15
2022-09-09T00:28:06.717Z,12.12
2022-09-09T00:29:06.721Z,12.12
2022-09-09T00:30:06.695Z,12.12
2022-09-09T00:31:06.711Z,12.15
2022-09-09T00:32:06.679Z,12.23
2022-09-09T00:33:07.871Z,12.23
2022-09-09T00:34:06.650Z,12.19
2022-09-09T00:35:06.641Z,12.21
2022-09-09T00:36:06.630Z,12.18
2022-09-09T00:37:06.643Z,12.21
2022-09-09T00:38:06.605Z,12.21
2022-09-09T00:39:06.595Z,12.19
2022-09-09T00:40:06.648Z,12.12
2022-09-09T00:41:06.572Z,12.04
2022-09-09T00:42:06.562Z,12.03
2022-09-09T00:43:06.551Z,12.01
2022-09-09T00:44:06.538Z,12.01
2022-09-09T00:45:06.529Z,12.03
2022-09-09T00:46:06.583Z,11.98
2022-09-09T00:47:06.506Z,12.03
2022-09-09T00:48:06.496Z,12.03
2022-09-09T00:49:06.482Z,12.07
2022-09-09T00:50:06.471Z,12.11
2022-09-09T00:51:06.461Z,12.08
2022-09-09T00:52:06.448Z,12.08
2022-09-09T00:53:06.473Z,12.07
2022-09-09T00:54:06.443Z,12.00
2022-09-09T00:55:06.416Z,11.88
2022-09-09T00:56:06.403Z,11.85
2022-09-09T00:57:06.393Z,11.88
2022-09-09T00:58:06.386Z,11.82
2022-09-09T00:59:06.372Z,11.87
2022-09-09T01:00:06.361Z,11.87
2022-09-09T01:01:06.419Z,11.88
2022-09-09T01:02:06.373Z,11.90
2022-09-09T01:03:06.333Z,11.84
2022-09-09T01:04:06.314Z,11.77
2022-09-09T01:05:06.307Z,11.75
2022-09-09T01:06:06.291Z,11.78
2022-09-09T01:07:06.283Z,11.77
2022-09-09T01:08:06.271Z,11.79
2022-09-09T01:09:06.284Z,11.78
2022-09-09T01:10:06.247Z,11.75
2022-09-09T01:11:06.238Z,11.81
2022-09-09T01:12:06.225Z,11.82
2022-09-09T01:13:06.217Z,11.87
2022-09-09T01:14:06.209Z,11.84
2022-09-09T01:15:06.198Z,11.81
2022-09-09T01:16:06.180Z,11.81
2022-09-09T01:17:06.226Z,11.93
2022-09-09T01:18:06.159Z,11.94
2022-09-09T01:19:06.150Z,11.96
2022-09-09T01:20:06.137Z,11.98
2022-09-09T01:21:06.126Z,11.93
2022-09-09T01:22:06.113Z,12.00
2022-09-09T01:23:06.104Z,12.11
2022-09-09T01:24:06.090Z,12.03
2022-09-09T01:25:06.107Z,12.08
2022-09-09T01:26:06.068Z,12.12
2022-09-09T01:27:06.062Z,12.12
2022-09-09T01:28:06.051Z,12.08
2022-09-09T01:29:06.039Z,12.07
2022-09-09T01:30:06.025Z,12.05
2022-09-09T01:31:06.117Z,12.05
2022-09-09T01:32:06.005Z,12.04
2022-09-09T01:33:05.993Z,12.04
2022-09-09T01:34:05.981Z,12.08
2022-09-09T01:35:05.972Z,12.05
2022-09-09T01:36:05.960Z,12.05
2022-09-09T01:37:05.950Z,12.00
2022-09-09T01:38:05.940Z,12.01
2022-09-09T01:39:05.931Z,12.00
2022-09-09T01:40:05.998Z,12.01
2022-09-09T01:41:05.930Z,12.04
2022-09-09T01:42:05.894Z,12.00
2022-09-09T01:43:05.884Z,12.00
2022-09-09T01:44:05.870Z,11.94
2022-09-09T01:45:05.862Z,11.97
2022-09-09T01:46:05.922Z,11.85
2022-09-09T01:47:05.840Z,11.84
2022-09-09T01:48:05.827Z,11.79
2022-09-09T01:49:05.818Z,11.79
2022-09-09T01:50:05.803Z,11.75
2022-09-09T01:51:05.795Z,11.74
2022-09-09T01:52:05.783Z,11.77
2022-09-09T01:53:05.772Z,11.81
2022-09-09T01:54:05.758Z,11.81
2022-09-09T01:55:05.749Z,11.93
2022-09-09T01:56:05.741Z,11.96
2022-09-09T01:57:05.751Z,11.94
2022-09-09T01:58:05.716Z,11.96
2022-09-09T01:59:05.706Z,11.90
2022-09-09T02:00:05.694Z,11.88
2022-09-09T02:01:05.713Z,11.88
2022-09-09T02:02:05.695Z,11.88
2022-09-09T02:03:05.663Z,11.85
2022-09-09T02:04:05.655Z,11.88
2022-09-09T02:05:05.639Z,11.93
2022-09-09T02:06:05.626Z,11.93
2022-09-09T02:07:06.016Z,11.93
2022-09-09T02:08:05.605Z,11.94
2022-09-09T02:09:05.597Z,11.96
2022-09-09T02:10:05.586Z,11.93
2022-09-09T02:11:05.576Z,11.93
2022-09-09T02:12:05.561Z,11.93
2022-09-09T02:13:05.575Z,11.88
2022-09-09T02:14:05.538Z,11.87
2022-09-09T02:15:05.530Z,11.90
2022-09-09T02:16:05.517Z,11.87
2022-09-09T02:17:05.591Z,11.90
2022-09-09T02:18:05.494Z,11.93
2022-09-09T02:19:05.487Z,11.94
2022-09-09T02:20:05.474Z,11.90
2022-09-09T02:21:05.466Z,11.90
2022-09-09T02:22:05.451Z,11.93
2022-09-09T02:23:05.493Z,11.94
2022-09-09T02:24:05.436Z,11.88
2022-09-09T02:25:05.420Z,11.82
2022-09-09T02:26:05.407Z,11.74
2022-09-09T02:27:05.396Z,11.72
2022-09-09T02:28:05.387Z,11.69
2022-09-09T02:29:05.401Z,11.72
2022-09-09T02:30:05.361Z,11.77
2022-09-09T02:31:05.453Z,11.75
2022-09-09T02:32:05.341Z,11.74
2022-09-09T02:33:05.331Z,11.69
2022-09-09T02:34:05.319Z,11.62
2022-09-09T02:35:05.310Z,11.56
2022-09-09T02:36:05.297Z,11.57
2022-09-09T02:37:05.291Z,11.49
2022-09-09T02:38:05.275Z,11.60
2022-09-09T02:39:05.266Z,11.59
2022-09-09T02:40:05.267Z,11.62
2022-09-09T02:41:05.243Z,11.57
2022-09-09T02:42:05.232Z,11.59
2022-09-09T02:43:05.222Z,11.53
2022-09-09T02:44:05.218Z,11.48
2022-09-09T02:45:05.225Z,11.49
2022-09-09T02:46:05.283Z,11.46
2022-09-09T02:47:05.178Z,11.42
2022-09-09T02:48:05.165Z,11.53
2022-09-09T02:49:05.157Z,11.63
2022-09-09T02:50:05.145Z,11.62
2022-09-09T02:51:05.134Z,11.60
2022-09-09T02:52:05.126Z,11.63
2022-09-09T02:53:05.114Z,11.60
2022-09-09T02:54:05.101Z,11.56
2022-09-09T02:55:05.091Z,11.53
2022-09-09T02:56:05.079Z,11.48
2022-09-09T02:57:05.072Z,11.51
2022-09-09T02:58:05.062Z,11.49
2022-09-09T02:59:05.054Z,11.53
2022-09-09T03:00:05.043Z,11.46
2022-09-09T03:01:05.111Z,11.48
2022-09-09T03:02:05.090Z,11.49
2022-09-09T03:03:05.007Z,11.45
2022-09-09T03:04:04.994Z,11.42
2022-09-09T03:05:04.993Z,11.45
2022-09-09T03:06:04.977Z,11.45
2022-09-09T03:07:04.959Z,11.48
2022-09-09T03:08:04.948Z,11.42
2022-09-09T03:09:04.937Z,11.44
2022-09-09T03:10:04.925Z,11.41
2022-09-09T03:11:04.923Z,11.33
2022-09-09T03:12:04.905Z,11.35
2022-09-09T03:13:04.895Z,11.24
2022-09-09T03:14:04.882Z,11.27
2022-09-09T03:15:04.873Z,11.26
2022-09-09T03:16:04.930Z,11.26
2022-09-09T03:17:04.879Z,11.21
2022-09-09T03:18:04.837Z,11.26
2022-09-09T03:19:04.829Z,11.24
2022-09-09T03:20:04.829Z,11.26
2022-09-09T03:21:04.852Z,11.24
2022-09-09T03:22:04.845Z,11.28
2022-09-09T03:23:04.912Z,11.28
2022-09-09T03:24:04.965Z,11.26
2022-09-09T03:25:04.890Z,11.23
2022-09-09T03:26:04.951Z,11.19
2022-09-09T03:27:04.743Z,11.17
2022-09-09T03:28:04.730Z,11.21
2022-09-09T03:29:04.720Z,11.17
2022-09-09T03:30:04.710Z,11.24
2022-09-09T03:31:04.709Z,11.24
2022-09-09T03:32:04.756Z,11.28
2022-09-09T03:33:04.704Z,11.30
2022-09-09T03:34:04.666Z,11.35
2022-09-09T03:35:04.656Z,11.45
2022-09-09T03:36:04.643Z,11.54
2022-09-09T03:37:04.633Z,11.57
2022-09-09T03:38:04.620Z,11.60
2022-09-09T03:39:04.613Z,11.60
2022-09-09T03:40:04.675Z,11.64
2022-09-09T03:41:04.591Z,11.63
2022-09-09T03:42:04.577Z,11.67
2022-09-09T03:43:04.567Z,11.69
2022-09-09T03:44:04.555Z,11.72
2022-09-09T03:45:04.549Z,11.70
2022-09-09T03:46:04.600Z,11.78
2022-09-09T03:47:04.523Z,11.82
2022-09-09T03:48:04.510Z,11.82
2022-09-09T03:49:04.526Z,11.87
2022-09-09T03:50:04.491Z,11.93
2022-09-09T03:51:04.479Z,11.98
2022-09-09T03:52:04.468Z,12.00
2022-09-09T03:53:04.458Z,12.05
2022-09-09T03:54:04.447Z,12.11
2022-09-09T03:55:04.433Z,12.13
2022-09-09T03:56:04.423Z,12.19
2022-09-09T03:57:04.411Z,12.22
2022-09-09T03:58:04.403Z,12.23
2022-09-09T03:59:04.390Z,12.25
2022-09-09T04:01:04.437Z,12.23
2022-09-09T04:02:04.441Z,12.26
2022-09-09T04:03:04.346Z,12.31
2022-09-09T04:04:04.358Z,12.30
2022-09-09T04:05:04.349Z,12.33
2022-09-09T04:06:04.312Z,12.33
2022-09-09T04:07:04.299Z,12.40
2022-09-09T04:08:04.295Z,12.37
2022-09-09T04:09:04.278Z,12.41
2022-09-09T04:10:04.266Z,12.37
2022-09-09T04:11:04.253Z,12.38
2022-09-09T04:12:04.245Z,12.38
2022-09-09T04:13:04.233Z,12.41
2022-09-09T04:14:04.223Z,12.43
2022-09-09T04:15:04.210Z,12.44
2022-09-09T04:16:04.227Z,12.49
2022-09-09T04:17:04.187Z,12.48
2022-09-09T04:18:04.181Z,12.55
2022-09-09T04:19:04.165Z,12.55
2022-09-09T04:20:04.154Z,12.55
2022-09-09T04:21:04.163Z,12.51
2022-09-09T04:22:04.132Z,12.55
2022-09-09T04:23:04.123Z,12.56
2022-09-09T04:24:04.109Z,12.58
2022-09-09T04:25:04.130Z,12.62
2022-09-09T04:26:04.095Z,12.62
2022-09-09T04:27:04.077Z,12.63
2022-09-09T04:28:04.067Z,12.67
2022-09-09T04:29:04.054Z,12.63
2022-09-09T04:30:04.044Z,12.71
2022-09-09T04:31:04.029Z,12.71
2022-09-09T04:32:04.087Z,12.69
2022-09-09T04:33:04.259Z,12.71
2022-09-09T04:34:04.001Z,12.67
2022-09-09T04:35:03.986Z,12.69
2022-09-09T04:36:04.231Z,12.71
2022-09-09T04:37:03.987Z,12.71
2022-09-09T04:38:03.955Z,12.71
2022-09-09T04:39:04.034Z,12.74
2022-09-09T04:40:04.081Z,12.80
2022-09-09T04:41:03.924Z,12.85
2022-09-09T04:42:03.911Z,12.87
2022-09-09T04:43:03.897Z,12.85
2022-09-09T04:44:03.890Z,12.81
2022-09-09T04:45:03.875Z,12.81
2022-09-09T04:46:03.877Z,12.84
2022-09-09T04:47:03.851Z,12.87
2022-09-09T04:48:03.843Z,12.89
2022-09-09T04:49:03.833Z,12.89
2022-09-09T04:50:03.820Z,12.88
2022-09-09T04:51:03.807Z,12.91
2022-09-09T04:52:03.798Z,12.96
2022-09-09T04:53:03.816Z,12.98
2022-09-09T04:54:03.781Z,13.03
2022-09-09T04:55:03.766Z,12.99
2022-09-09T04:56:03.757Z,12.99
2022-09-09T04:57:03.741Z,13.03
2022-09-09T04:58:03.735Z,12.99
2022-09-09T04:59:03.721Z,12.99
2022-09-09T05:00:03.712Z,12.98
2022-09-09T05:01:03.717Z,12.98
2022-09-09T05:02:03.769Z,12.98
2022-09-09T05:03:03.680Z,12.95
2022-09-09T05:04:03.672Z,12.92
2022-09-09T05:05:03.852Z,12.95
2022-09-09T05:06:03.642Z,12.87
2022-09-09T05:07:03.631Z,12.85
2022-09-09T05:08:03.629Z,12.77
2022-09-09T05:09:03.634Z,12.76
2022-09-09T05:10:03.600Z,12.73
2022-09-09T05:11:03.597Z,12.71
2022-09-09T05:12:03.575Z,12.70
2022-09-09T05:13:03.565Z,12.69
2022-09-09T05:14:03.553Z,12.79
2022-09-09T05:15:03.564Z,12.77
2022-09-09T05:16:03.597Z,12.79
2022-09-09T05:17:03.522Z,12.79
2022-09-09T05:18:03.513Z,12.73
2022-09-09T05:19:03.500Z,12.71
2022-09-09T05:20:06.610Z,12.69
2022-09-09T05:21:03.476Z,12.73
2022-09-09T05:22:03.469Z,12.77
2022-09-09T05:23:03.456Z,12.76
2022-09-09T05:24:03.444Z,12.77
2022-09-09T05:25:03.457Z,12.71
2022-09-09T05:26:03.429Z,12.73
2022-09-09T05:27:03.414Z,12.70
2022-09-09T05:28:03.398Z,12.71
2022-09-09T05:29:03.386Z,12.73
2022-09-09T05:30:03.378Z,12.74
2022-09-09T05:31:03.393Z,12.79
2022-09-09T05:32:03.455Z,12.77
2022-09-09T05:33:03.342Z,12.84
2022-09-09T05:34:03.334Z,12.85
2022-09-09T05:35:03.320Z,12.99
2022-09-09T05:36:03.309Z,13.01
2022-09-09T05:37:03.297Z,13.07
2022-09-09T05:38:03.290Z,13.14
2022-09-09T05:39:03.278Z,13.13
2022-09-09T05:40:03.382Z,13.14
2022-09-09T05:41:03.278Z,13.14
2022-09-09T05:42:03.244Z,13.13
2022-09-09T05:43:03.235Z,13.13
2022-09-09T05:44:03.233Z,13.09
2022-09-09T05:45:03.229Z,13.14
2022-09-09T05:46:03.201Z,13.13
2022-09-09T05:47:03.246Z,13.14
2022-09-09T05:48:03.184Z,13.14
2022-09-09T05:49:03.166Z,13.16
2022-09-09T05:50:03.159Z,13.12
2022-09-09T05:51:03.141Z,13.10
2022-09-09T05:52:03.132Z,13.09
2022-09-09T05:53:03.118Z,13.10
2022-09-09T05:54:03.108Z,13.10
2022-09-09T05:55:03.097Z,13.10
2022-09-09T05:56:03.102Z,13.10
2022-09-09T05:57:03.121Z,13.16
2022-09-09T05:58:03.067Z,13.16
2022-09-09T05:59:03.064Z,13.22
2022-09-09T06:00:03.049Z,13.24
2022-09-09T06:01:03.034Z,13.25
2022-09-09T06:02:03.136Z,13.24
2022-09-09T06:03:03.174Z,13.24
2022-09-09T06:04:03.006Z,13.22
2022-09-09T06:05:02.986Z,13.21
2022-09-09T06:06:02.977Z,13.28
2022-09-09T06:07:02.965Z,13.32
2022-09-09T06:08:02.979Z,13.41
2022-09-09T06:09:02.974Z,13.41
2022-09-09T06:10:02.933Z,13.41
2022-09-09T06:11:02.921Z,13.36
2022-09-09T06:12:02.913Z,13.35
2022-09-09T06:13:02.931Z,13.36
2022-09-09T06:14:02.900Z,13.38
2022-09-09T06:15:02.887Z,13.36
2022-09-09T06:16:02.940Z,13.32
2022-09-09T06:17:02.860Z,13.36
2022-09-09T06:18:02.856Z,13.32
2022-09-09T06:19:02.844Z,13.38
2022-09-09T06:20:02.848Z,13.44
2022-09-09T06:21:02.845Z,13.48
2022-09-09T06:22:02.805Z,13.55
2022-09-09T06:23:02.801Z,13.57
2022-09-09T06:24:02.782Z,13.63
2022-09-09T06:25:02.775Z,13.72
2022-09-09T06:26:02.760Z,13.83
2022-09-09T06:27:02.756Z,13.90
2022-09-09T06:28:02.739Z,13.88
2022-09-09T06:29:02.748Z,13.91
2022-09-09T06:30:02.715Z,13.90
2022-09-09T06:31:02.754Z,13.96
2022-09-09T06:32:02.792Z,14.09
2022-09-09T06:33:02.680Z,14.27
2022-09-09T06:34:02.676Z,14.41
2022-09-09T06:35:02.685Z,14.69
2022-09-09T06:36:02.666Z,14.83
2022-09-09T06:37:02.661Z,14.91
2022-09-09T06:38:02.623Z,14.95
2022-09-09T06:39:02.615Z,15.12
2022-09-09T06:40:02.768Z,15.34
2022-09-09T06:41:02.588Z,15.53
2022-09-09T06:42:02.590Z,15.66
2022-09-09T06:43:02.572Z,15.78
2022-09-09T06:44:02.563Z,16.03
2022-09-09T06:45:02.572Z,16.14
2022-09-09T06:46:02.542Z,16.29
2022-09-09T06:47:02.557Z,16.25
2022-09-09T06:48:02.520Z,16.32
2022-09-09T06:49:02.508Z,16.42
2022-09-09T06:50:02.494Z,16.50
2022-09-09T06:51:02.478Z,16.57
2022-09-09T06:52:02.474Z,16.78
2022-09-09T06:53:02.459Z,16.96
2022-09-09T06:54:02.449Z,17.05
2022-09-09T06:55:02.454Z,16.99
2022-09-09T06:56:02.451Z,17.10
2022-09-09T06:57:11.145Z,17.28
2022-09-09T06:58:03.429Z,17.54
2022-09-09T06:59:02.393Z,17.68
2022-09-09T07:00:02.382Z,17.86
2022-09-09T07:01:02.528Z,18.07
2022-09-09T07:02:02.446Z,18.25
2022-09-09T07:03:02.353Z,18.19
2022-09-09T07:04:02.343Z,18.16
2022-09-09T07:05:02.327Z,18.26
2022-09-09T07:06:02.318Z,18.32
2022-09-09T07:07:02.309Z,18.50
2022-09-09T07:08:02.296Z,18.49
2022-09-09T07:09:02.282Z,18.39
2022-09-09T07:10:02.276Z,18.49
2022-09-09T07:11:02.264Z,18.57
2022-09-09T07:12:02.254Z,18.74
2022-09-09T07:13:02.238Z,18.65
2022-09-09T07:14:02.237Z,18.65
2022-09-09T07:15:02.237Z,18.66
2022-09-09T07:16:02.280Z,18.90
2022-09-09T07:17:02.235Z,18.99
2022-09-09T07:18:02.226Z,18.89
2022-09-09T07:19:02.488Z,18.78
2022-09-09T07:20:02.163Z,19.05
2022-09-09T07:21:02.155Z,19.32
2022-09-09T07:22:02.144Z,19.57
2022-09-09T07:23:02.134Z,19.78
2022-09-09T07:24:02.124Z,19.92
2022-09-09T07:25:02.110Z,19.98
2022-09-09T07:26:02.101Z,20.04
2022-09-09T07:27:02.089Z,20.25
2022-09-09T07:28:02.081Z,20.48
2022-09-09T07:29:02.072Z,20.56
2022-09-09T07:30:02.057Z,20.53
2022-09-09T07:31:02.127Z,20.63
2022-09-09T07:32:02.044Z,20.68
2022-09-09T07:33:02.048Z,20.75
2022-09-09T07:34:02.017Z,20.69
2022-09-09T07:35:02.001Z,20.76
2022-09-09T07:36:01.990Z,20.88
2022-09-09T07:37:01.980Z,21.03
2022-09-09T07:38:01.972Z,21.09
2022-09-09T07:39:01.958Z,21.01
2022-09-09T07:40:02.066Z,20.98
2022-09-09T07:41:01.937Z,21.15
2022-09-09T07:42:01.930Z,21.31
2022-09-09T07:43:01.916Z,21.40
2022-09-09T07:44:02.047Z,21.26
2022-09-09T07:45:01.894Z,21.28
2022-09-09T07:46:01.923Z,21.28
2022-09-09T07:47:01.869Z,21.40
2022-09-09T07:48:01.862Z,21.48
2022-09-09T07:49:01.882Z,21.59
2022-09-09T07:50:01.840Z,21.48
2022-09-09T07:51:01.832Z,21.21
2022-09-09T07:52:01.866Z,20.91
2022-09-09T07:53:01.806Z,20.58
2022-09-09T07:54:01.797Z,20.31
2022-09-09T07:55:01.809Z,19.64
2022-09-09T07:56:03.935Z,19.58
2022-09-09T07:57:01.764Z,19.85
2022-09-09T07:58:01.757Z,19.98
2022-09-09T07:59:01.743Z,20.40
2022-09-09T08:00:01.737Z,20.90
2022-09-09T08:01:01.720Z,21.15
2022-09-09T08:02:01.810Z,21.19
2022-09-09T08:03:01.729Z,21.42
2022-09-09T08:04:01.693Z,21.61
2022-09-09T08:05:01.735Z,21.63
2022-09-09T08:06:01.673Z,21.58
2022-09-09T08:07:01.709Z,21.67
2022-09-09T08:08:01.647Z,21.82
2022-09-09T08:09:01.637Z,21.61
2022-09-09T08:10:01.628Z,21.53
2022-09-09T08:11:01.617Z,21.63
2022-09-09T08:12:01.607Z,21.91
2022-09-09T08:13:17.523Z,22.21
2022-09-09T08:14:02.805Z,22.59
2022-09-09T08:15:01.573Z,22.70
2022-09-09T08:16:01.588Z,22.67
2022-09-09T08:17:01.550Z,22.69
2022-09-09T08:18:01.541Z,23.04
2022-09-09T08:19:01.564Z,23.07
2022-09-09T08:20:01.703Z,22.05
2022-09-09T08:21:01.535Z,21.36
2022-09-09T08:22:01.509Z,21.79
2022-09-09T08:23:01.490Z,22.15
2022-09-09T08:24:01.475Z,21.46
2022-09-09T08:25:01.474Z,21.03
2022-09-09T08:26:01.453Z,20.78
2022-09-09T08:27:01.445Z,20.54
2022-09-09T08:28:01.431Z,20.02
2022-09-09T08:29:01.426Z,19.70
2022-09-09T08:30:01.431Z,19.61
2022-09-09T08:31:01.613Z,19.45
2022-09-09T08:32:01.393Z,19.46
2022-09-09T08:33:01.381Z,19.76
2022-09-09T08:34:01.466Z,20.69
2022-09-09T08:35:01.645Z,21.16
2022-09-09T08:36:01.348Z,21.22
2022-09-09T08:37:01.371Z,21.01
2022-09-09T08:38:01.325Z,20.82
2022-09-09T08:39:01.320Z,20.85
2022-09-09T08:40:01.362Z,20.98
2022-09-09T08:41:01.339Z,20.64
2022-09-09T08:42:01.342Z,20.41
2022-09-09T08:43:01.290Z,20.42
2022-09-09T08:44:01.277Z,20.73
2022-09-09T08:45:01.262Z,20.44
2022-09-09T08:46:01.320Z,20.34
2022-09-09T08:47:01.243Z,20.30
2022-09-09T08:48:01.218Z,20.22
2022-09-09T08:49:01.211Z,20.02
2022-09-09T08:50:01.196Z,19.55
2022-09-09T08:51:01.203Z,19.28
2022-09-09T08:52:01.185Z,19.21
2022-09-09T08:53:01.194Z,19.28
2022-09-09T08:54:01.155Z,19.32
2022-09-09T08:55:01.145Z,19.32
2022-09-09T08:56:01.132Z,19.30
2022-09-09T08:57:01.129Z,19.31
2022-09-09T08:58:01.110Z,19.25
2022-09-09T08:59:01.104Z,19.34
2022-09-09T09:00:01.096Z,19.38
2022-09-09T09:01:01.093Z,19.55
2022-09-09T09:02:01.286Z,19.45
2022-09-09T09:03:01.073Z,19.46
2022-09-09T09:04:01.049Z,19.57
2022-09-09T09:05:01.067Z,19.87
2022-09-09T09:06:01.025Z,20.16
2022-09-09T09:07:01.036Z,20.97
2022-09-09T09:08:01.003Z,21.42
2022-09-09T09:09:01.021Z,21.36
2022-09-09T09:10:00.985Z,20.96
2022-09-09T09:11:00.975Z,20.68
2022-09-09T09:12:00.960Z,20.64
2022-09-09T09:13:00.953Z,20.71
2022-09-09T09:14:00.941Z,20.42
2022-09-09T09:15:00.931Z,20.37
2022-09-09T09:16:00.962Z,20.46
2022-09-09T09:17:00.914Z,20.78
2022-09-09T09:18:00.903Z,20.63
2022-09-09T09:19:00.889Z,20.58
2022-09-09T09:20:00.877Z,20.79
2022-09-09T09:21:00.866Z,21.36
2022-09-09T09:22:00.852Z,21.61
2022-09-09T09:23:01.089Z,21.46
2022-09-09T09:24:00.839Z,21.13
2022-09-09T09:25:00.855Z,20.94
2022-09-09T09:26:00.807Z,21.64
2022-09-09T09:27:00.840Z,21.89
2022-09-09T09:28:00.813Z,22.33
2022-09-09T09:29:00.778Z,22.46
2022-09-09T09:30:22.870Z,23.21
2022-09-09T09:31:01.828Z,24.00
2022-09-09T09:32:00.797Z,24.66
2022-09-09T09:33:00.943Z,24.15
2022-09-09T09:34:00.729Z,24.05
2022-09-09T09:35:00.785Z,24.04
2022-09-09T09:36:00.836Z,24.55
2022-09-09T09:37:00.834Z,24.19
2022-09-09T09:41:00.913Z,24.33
2022-09-09T09:42:05.065Z,23.89
2022-09-09T09:43:00.784Z,23.31
2022-09-09T09:44:00.642Z,23.89
2022-09-09T09:45:01.173Z,24.49
2022-09-09T09:46:16.616Z,23.84
2022-09-09T09:47:01.661Z,23.81
2022-09-09T09:48:05.382Z,23.56
2022-09-09T09:49:00.572Z,23.25
2022-09-09T09:50:00.702Z,24.09
2022-09-09T09:51:00.538Z,24.64
2022-09-09T09:52:00.528Z,25.31
2022-09-09T09:53:00.518Z,26.19
2022-09-09T09:54:00.528Z,26.65
2022-09-09T09:55:04.029Z,27.20
2022-09-09T09:56:01.514Z,27.38
2022-09-09T09:57:00.508Z,27.40
2022-09-09T09:58:00.534Z,27.38
2022-09-09T09:59:00.710Z,27.63
2022-09-09T10:00:00.446Z,27.16
2022-09-09T10:01:00.439Z,26.16
2022-09-09T10:02:00.422Z,25.30
2022-09-09T10:03:00.418Z,25.11
2022-09-09T10:04:00.433Z,24.80
2022-09-09T10:05:00.530Z,25.61
2022-09-09T10:06:00.389Z,26.51
2022-09-09T10:07:00.377Z,27.12
2022-09-09T10:08:00.365Z,27.18
2022-09-09T10:09:00.353Z,27.02
2022-09-09T10:10:00.348Z,27.48
2022-09-09T10:11:00.336Z,26.87
2022-09-09T10:12:00.320Z,26.17
2022-09-09T10:13:00.331Z,25.51
2022-09-09T10:14:00.308Z,25.08
2022-09-09T10:15:00.310Z,24.79
2022-09-09T10:16:05.097Z,25.71
2022-09-09T10:17:00.274Z,26.31
2022-09-09T10:18:00.261Z,26.08
2022-09-09T10:19:00.248Z,26.54
2022-09-09T10:20:00.237Z,26.68
2022-09-09T10:21:00.226Z,26.03
2022-09-09T10:22:00.216Z,25.83
2022-09-09T10:23:00.206Z,25.61
2022-09-09T10:24:00.305Z,25.49
2022-09-09T10:25:00.208Z,25.12
2022-09-09T10:26:00.201Z,25.56
2022-09-09T10:27:00.181Z,26.00
2022-09-09T10:28:05.366Z,26.61
2022-09-09T10:29:00.171Z,27.03
2022-09-09T10:30:00.151Z,27.03
2022-09-09T10:31:00.256Z,26.51
2022-09-09T10:32:00.259Z,26.27
2022-09-09T10:33:00.283Z,26.23
2022-09-09T10:34:00.232Z,25.93
2022-09-09T10:35:00.177Z,25.45
2022-09-09T10:36:00.262Z,25.11
2022-09-09T10:37:00.263Z,24.94
2022-09-09T10:38:00.322Z,24.66
2022-09-09T10:39:00.252Z,24.51
2022-09-09T10:40:00.084Z,24.46
2022-09-09T10:41:00.044Z,24.52
2022-09-09T10:42:00.020Z,24.63
2022-09-09T10:43:00.007Z,24.94
2022-09-09T10:44:00.710Z,25.02
2022-09-09T10:45:00.020Z,24.75
2022-09-09T10:46:00.149Z,24.48
2022-09-09T10:47:01.765Z,24.19
2022-09-09T10:47:59.954Z,24.09
2022-09-09T10:48:59.946Z,24.00
2022-09-09T10:49:59.932Z,23.99
2022-09-09T10:51:03.366Z,23.87
2022-09-09T10:51:59.911Z,23.60
2022-09-09T10:53:00.512Z,23.47
2022-09-09T10:53:59.892Z,23.34
2022-09-09T10:54:59.880Z,23.31
2022-09-09T10:55:59.868Z,23.44
2022-09-09T10:56:59.862Z,23.63
2022-09-09T10:57:59.847Z,23.92
2022-09-09T10:58:59.840Z,24.56
2022-09-09T10:59:59.830Z,24.89
2022-09-09T11:01:00.025Z,25.14
2022-09-09T11:01:59.817Z,25.34
2022-09-09T11:02:59.798Z,25.30
2022-09-09T11:03:59.786Z,25.26
2022-09-09T11:04:59.775Z,25.05
2022-09-09T11:05:59.846Z,24.94
2022-09-09T11:06:59.755Z,24.94
2022-09-09T11:07:59.741Z,25.04
2022-09-09T11:08:59.729Z,25.16
2022-09-09T11:09:59.718Z,25.39
2022-09-09T11:10:59.709Z,26.32
2022-09-09T11:11:59.699Z,26.83
2022-09-09T11:12:59.689Z,26.76
2022-09-09T11:13:59.693Z,26.60
2022-09-09T11:14:59.711Z,26.28
2022-09-09T11:15:59.655Z,26.04
2022-09-09T11:16:59.747Z,26.09
2022-09-09T11:17:59.634Z,25.94
2022-09-09T11:18:59.626Z,25.76
2022-09-09T11:19:59.615Z,25.16
2022-09-09T11:20:59.607Z,24.82
2022-09-09T11:21:59.593Z,24.63
2022-09-09T11:22:59.584Z,24.51
2022-09-09T11:23:59.613Z,24.52
2022-09-09T11:24:59.564Z,24.42
2022-09-09T11:25:59.561Z,24.42
2022-09-09T11:26:59.542Z,24.44
2022-09-09T11:27:59.537Z,24.52
2022-09-09T11:29:04.096Z,24.83
2022-09-09T11:29:59.508Z,25.22
2022-09-09T11:30:59.648Z,25.04
2022-09-09T11:31:59.485Z,25.20
2022-09-09T11:32:59.513Z,25.54
2022-09-09T11:33:59.476Z,25.60
2022-09-09T11:34:59.457Z,25.42
2022-09-09T11:36:00.543Z,25.31
2022-09-09T11:36:59.585Z,25.27
2022-09-09T11:37:59.423Z,25.22
2022-09-09T11:38:59.452Z,25.17
2022-09-09T11:39:59.445Z,25.12
2022-09-09T11:40:59.393Z,25.04
2022-09-09T11:41:59.381Z,24.94
2022-09-09T11:42:59.371Z,24.79
2022-09-09T11:43:59.365Z,24.61
2022-09-09T11:44:59.352Z,24.49
2022-09-09T11:46:01.053Z,24.39
2022-09-09T11:46:59.330Z,24.51
2022-09-09T11:47:59.316Z,24.63
2022-09-09T11:48:59.329Z,24.59
2022-09-09T11:49:59.296Z,24.19
2022-09-09T11:50:59.286Z,23.99
2022-09-09T11:51:59.283Z,23.63
2022-09-09T11:52:59.268Z,23.44
2022-09-09T11:53:59.255Z,23.19
2022-09-09T11:54:59.250Z,22.96
2022-09-09T11:55:59.232Z,22.91
2022-09-09T11:56:59.230Z,22.85
2022-09-09T11:57:59.214Z,22.82
2022-09-09T11:58:59.203Z,22.81
2022-09-09T11:59:59.190Z,22.81
2022-09-09T12:00:59.182Z,22.76
2022-09-09T12:01:59.235Z,22.78
2022-09-09T12:02:59.159Z,22.72
2022-09-09T12:03:59.208Z,22.61
2022-09-09T12:04:59.239Z,22.59
2022-09-09T12:05:59.128Z,22.51
2022-09-09T12:06:59.116Z,22.46
2022-09-09T12:07:59.102Z,22.48
2022-09-09T12:08:59.094Z,22.39
2022-09-09T12:09:59.081Z,22.19
2022-09-09T12:10:59.073Z,22.17
2022-09-09T12:11:59.061Z,22.01
2022-09-09T12:12:59.051Z,21.99
2022-09-09T12:13:59.039Z,21.98
2022-09-09T12:14:59.032Z,21.81
2022-09-09T12:15:59.017Z,21.74
2022-09-09T12:16:59.137Z,21.68
2022-09-09T12:18:02.961Z,21.71
2022-09-09T12:18:58.989Z,21.68
2022-09-09T12:19:58.978Z,21.66
2022-09-09T12:20:58.986Z,21.53
2022-09-09T12:21:58.955Z,21.40
2022-09-09T12:22:58.943Z,21.30
2022-09-09T12:23:58.931Z,21.26
2022-09-09T12:24:58.921Z,21.31
2022-09-09T12:25:58.920Z,21.26
2022-09-09T12:26:58.900Z,21.31
2022-09-09T12:27:58.892Z,21.33
2022-09-09T12:28:58.876Z,21.36
2022-09-09T12:29:58.894Z,21.33
2022-09-09T12:30:58.938Z,21.31
2022-09-09T12:31:58.846Z,21.33
2022-09-09T12:32:58.836Z,21.22
2022-09-09T12:33:58.847Z,21.16
2022-09-09T12:34:58.812Z,21.11
2022-09-09T12:35:58.804Z,21.06
2022-09-09T12:36:58.824Z,20.96
2022-09-09T12:37:58.780Z,20.96
2022-09-09T12:38:58.774Z,20.96
2022-09-09T12:39:58.785Z,21.01
2022-09-09T12:40:58.750Z,20.97
2022-09-09T12:41:58.739Z,20.87
2022-09-09T12:42:58.741Z,20.75
2022-09-09T12:43:58.719Z,20.75
2022-09-09T12:44:58.703Z,20.72
2022-09-09T12:45:58.851Z,20.64
2022-09-09T12:46:58.682Z,20.54
2022-09-09T12:47:58.675Z,20.54
2022-09-09T12:48:58.663Z,20.40
2022-09-09T12:49:58.650Z,20.37
2022-09-09T12:50:58.638Z,20.33
2022-09-09T12:51:58.630Z,20.33
2022-09-09T12:52:58.643Z,20.33
2022-09-09T12:53:58.609Z,20.31
2022-09-09T12:54:58.616Z,20.27
2022-09-09T12:55:58.592Z,20.31